createdAt,value
2019-03-06T00:00:56.666Z,93.40
2019-03-06T00:03:28.147Z,93.50
2019-03-06T00:05:57.914Z,93.90
2019-03-06T00:08:27.649Z,93.60
2019-03-06T00:10:57.384Z,93.40
2019-03-06T00:13:27.108Z,93.40
2019-03-06T00:15:56.849Z,93.40
2019-03-06T00:18:26.608Z,93.40
2019-03-06T00:20:56.336Z,93.40
2019-03-06T00:23:27.093Z,93.40
2019-03-06T00:25:57.134Z,93.40
2019-03-06T00:28:26.854Z,93.40
2019-03-06T00:30:56.606Z,93.30
2019-03-06T00:33:26.329Z,93.30
2019-03-06T00:35:57.640Z,93.30
2019-03-06T00:38:27.378Z,93.40
2019-03-06T00:40:58.705Z,93.40
2019-03-06T00:43:28.434Z,93.30
2019-03-06T00:45:58.181Z,92.90
2019-03-06T00:48:27.915Z,93.10
2019-03-06T00:50:58.426Z,93.10
2019-03-06T00:53:28.162Z,93.10
2019-03-06T00:55:57.893Z,93.10
2019-03-06T00:58:27.659Z,93.00
2019-03-06T01:00:57.590Z,92.90
2019-03-06T01:03:27.321Z,92.90
2019-03-06T01:05:57.050Z,92.80
2019-03-06T01:08:26.778Z,92.80
2019-03-06T01:10:56.525Z,92.80
2019-03-06T01:13:26.272Z,92.80
2019-03-06T01:15:56.010Z,92.80
2019-03-06T01:18:25.838Z,92.70
2019-03-06T01:20:55.566Z,92.90
2019-03-06T01:23:25.338Z,92.90
2019-03-06T01:25:55.066Z,92.80
2019-03-06T01:28:24.845Z,92.80
2019-03-06T01:30:54.566Z,92.90
2019-03-06T01:33:38.109Z,92.90
2019-03-06T01:36:27.114Z,92.90
2019-03-06T01:39:04.588Z,92.70
2019-03-06T01:41:46.474Z,92.80
2019-03-06T01:44:17.809Z,92.80
2019-03-06T01:46:47.529Z,92.80
2019-03-06T01:49:17.270Z,92.90
2019-03-06T01:51:46.998Z,93.10
2019-03-06T01:54:16.730Z,93.20
2019-03-06T01:56:46.515Z,93.10
2019-03-06T01:59:16.265Z,93.20
2019-03-06T02:01:46.446Z,93.20
2019-03-06T02:04:16.498Z,93.40
2019-03-06T02:06:46.269Z,93.40
2019-03-06T02:09:18.511Z,93.50
2019-03-06T02:11:48.291Z,93.50
2019-03-06T02:14:18.113Z,93.90
2019-03-06T02:16:47.899Z,93.70
2019-03-06T02:19:17.638Z,93.70
2019-03-06T02:21:47.365Z,93.90
2019-03-06T02:24:17.102Z,93.90
2019-03-06T02:26:46.829Z,94.00
2019-03-06T02:29:16.633Z,94.10
2019-03-06T02:31:46.356Z,94.10
2019-03-06T02:34:16.126Z,94.20
2019-03-06T02:36:46.063Z,94.30
2019-03-06T02:39:15.824Z,94.40
2019-03-06T02:41:45.546Z,94.60
2019-03-06T02:44:15.285Z,94.40
2019-03-06T02:46:45.099Z,94.50
2019-03-06T02:49:16.054Z,94.50
2019-03-06T02:51:45.925Z,94.60
2019-03-06T02:54:15.652Z,94.50
2019-03-06T02:56:45.389Z,94.60
2019-03-06T02:59:16.691Z,94.70
2019-03-06T03:01:48.131Z,94.70
2019-03-06T03:04:22.146Z,94.70
2019-03-06T03:06:53.498Z,94.80
2019-03-06T03:09:23.214Z,94.80
2019-03-06T03:11:53.289Z,94.70
2019-03-06T03:14:24.017Z,94.60
2019-03-06T03:16:53.977Z,94.60
2019-03-06T03:19:23.989Z,94.50
2019-03-06T03:21:53.729Z,94.40
2019-03-06T03:24:23.554Z,94.50
2019-03-06T03:26:54.289Z,94.50
2019-03-06T03:29:24.056Z,94.40
2019-03-06T03:31:54.068Z,94.40
2019-03-06T03:34:23.826Z,94.50
2019-03-06T03:36:53.550Z,94.50
2019-03-06T03:39:23.627Z,94.60
2019-03-06T03:41:53.338Z,94.60
2019-03-06T03:44:23.100Z,94.60
2019-03-06T03:46:52.830Z,94.70
2019-03-06T03:49:22.562Z,95.00
2019-03-06T03:51:52.309Z,94.80
2019-03-06T03:54:22.032Z,94.90
2019-03-06T03:56:51.813Z,95.20
2019-03-06T03:59:21.543Z,94.80
2019-03-06T04:01:51.697Z,94.70
2019-03-06T04:04:21.425Z,94.60
2019-03-06T04:06:51.186Z,94.50
2019-03-06T04:09:20.922Z,94.40
2019-03-06T04:11:50.655Z,94.50
2019-03-06T04:14:20.403Z,94.50
2019-03-06T04:16:50.121Z,94.60
2019-03-06T04:19:19.898Z,94.50
2019-03-06T04:21:49.630Z,95.00
2019-03-06T04:24:19.386Z,94.60
2019-03-06T04:26:49.114Z,94.60
2019-03-06T04:29:18.886Z,94.70
2019-03-06T04:31:48.620Z,94.70
2019-03-06T04:34:18.362Z,94.80
2019-03-06T04:36:48.087Z,94.90
2019-03-06T04:39:17.821Z,94.90
2019-03-06T04:41:47.592Z,94.80
2019-03-06T04:44:18.338Z,94.90
2019-03-06T04:46:48.117Z,95.00
2019-03-06T04:49:17.954Z,95.00
2019-03-06T04:51:47.690Z,95.00
2019-03-06T04:54:17.423Z,95.10
2019-03-06T04:56:47.137Z,95.20
2019-03-06T04:59:16.910Z,95.20
2019-03-06T05:01:46.934Z,95.20
2019-03-06T05:04:16.677Z,95.20
2019-03-06T05:06:46.406Z,95.20
2019-03-06T05:09:16.132Z,95.30
2019-03-06T05:11:45.900Z,95.30
2019-03-06T05:14:15.637Z,95.20
2019-03-06T05:16:46.989Z,95.20
2019-03-06T05:19:16.731Z,95.20
2019-03-06T05:21:46.453Z,95.10
2019-03-06T05:24:16.185Z,95.10
2019-03-06T05:26:45.911Z,95.20
2019-03-06T05:29:15.669Z,95.20
2019-03-06T05:32:11.107Z,95.30
2019-03-06T05:34:40.886Z,95.10
2019-03-06T05:37:30.098Z,95.10
2019-03-06T05:39:59.873Z,95.10
2019-03-06T05:42:29.601Z,95.30
2019-03-06T05:44:59.338Z,95.40
2019-03-06T05:47:29.062Z,95.30
2019-03-06T05:49:59.134Z,95.30
2019-03-06T05:52:28.869Z,95.30
2019-03-06T05:54:58.602Z,95.10
2019-03-06T05:57:28.341Z,95.10
2019-03-06T05:59:58.061Z,95.10
2019-03-06T06:02:28.015Z,95.00
2019-03-06T06:04:58.046Z,94.90
2019-03-06T06:07:27.813Z,94.80
2019-03-06T06:09:57.543Z,94.80
2019-03-06T06:12:27.266Z,94.80
2019-03-06T06:14:56.997Z,94.80
2019-03-06T06:17:26.726Z,94.80
2019-03-06T06:19:56.459Z,94.80
2019-03-06T06:22:30.661Z,94.80
2019-03-06T06:25:00.407Z,94.60
2019-03-06T06:27:30.394Z,94.10
2019-03-06T06:30:00.238Z,94.30
2019-03-06T06:32:30.091Z,94.30
2019-03-06T06:34:59.817Z,94.30
2019-03-06T06:37:29.550Z,94.10
2019-03-06T06:39:59.374Z,94.10
2019-03-06T06:42:29.105Z,93.50
2019-03-06T06:44:58.886Z,93.40
2019-03-06T06:47:28.618Z,93.10
2019-03-06T06:49:58.350Z,92.80
2019-03-06T06:52:49.225Z,92.60
2019-03-06T06:55:24.897Z,92.40
2019-03-06T06:58:18.309Z,92.10
2019-03-06T07:01:01.798Z,92.00
2019-03-06T07:04:10.414Z,91.70
2019-03-06T07:06:44.256Z,91.40
2019-03-06T07:09:15.646Z,91.10
2019-03-06T07:11:58.630Z,90.80
2019-03-06T07:14:29.922Z,90.50
2019-03-06T07:17:13.417Z,90.40
2019-03-06T07:19:47.433Z,90.00
2019-03-06T07:22:21.466Z,90.00
2019-03-06T07:25:07.718Z,88.70
2019-03-06T07:27:51.070Z,88.70
2019-03-06T07:30:25.077Z,88.20
2019-03-06T07:33:02.144Z,87.80
2019-03-06T07:35:56.567Z,86.20
2019-03-06T07:38:26.638Z,86.00
2019-03-06T07:40:57.943Z,85.90
2019-03-06T07:43:31.754Z,83.70
2019-03-06T07:46:03.052Z,84.50
2019-03-06T07:48:35.307Z,84.70
2019-03-06T07:51:06.610Z,82.20
2019-03-06T07:53:52.507Z,82.20
2019-03-06T07:56:25.093Z,81.60
2019-03-06T07:58:56.665Z,81.60
2019-03-06T08:01:29.054Z,80.50
2019-03-06T08:04:10.145Z,79.00
2019-03-06T08:06:41.556Z,79.10
2019-03-06T08:09:14.258Z,78.70
2019-03-06T08:11:45.545Z,77.00
2019-03-06T08:14:33.115Z,77.40
2019-03-06T08:17:04.411Z,76.40
2019-03-06T08:19:44.842Z,76.70
2019-03-06T08:22:34.313Z,75.60
2019-03-06T08:25:07.109Z,74.90
2019-03-06T08:27:36.850Z,73.20
2019-03-06T08:30:09.390Z,69.30
2019-03-06T08:32:39.130Z,65.00
2019-03-06T08:35:10.910Z,62.80
2019-03-06T08:37:40.639Z,60.50
2019-03-06T08:40:11.946Z,58.00
2019-03-06T08:42:41.682Z,59.10
2019-03-06T08:45:14.926Z,59.10
2019-03-06T08:48:01.466Z,60.00
2019-03-06T08:50:44.826Z,60.20
2019-03-06T08:53:25.429Z,62.50
2019-03-06T08:55:59.540Z,61.40
2019-03-06T08:58:36.831Z,61.10
2019-03-06T09:01:25.885Z,62.50
2019-03-06T09:04:00.310Z,61.70
2019-03-06T09:06:31.679Z,63.80
2019-03-06T09:09:04.241Z,62.20
2019-03-06T09:11:43.165Z,61.30
2019-03-06T09:14:30.676Z,59.50
2019-03-06T09:17:02.020Z,60.10
2019-03-06T09:19:36.071Z,58.80
2019-03-06T09:22:17.258Z,59.00
2019-03-06T09:24:51.415Z,59.10
2019-03-06T09:27:38.866Z,59.30
2019-03-06T09:30:25.782Z,57.80
2019-03-06T09:32:59.794Z,58.20
2019-03-06T09:35:40.378Z,56.10
2019-03-06T09:38:11.843Z,54.90
2019-03-06T09:40:49.034Z,55.20
2019-03-06T09:43:23.162Z,55.90
2019-03-06T09:46:00.394Z,54.80
2019-03-06T09:48:34.920Z,55.00
2019-03-06T09:51:19.166Z,55.60
2019-03-06T09:53:56.358Z,52.70
2019-03-06T09:56:33.647Z,52.00
2019-03-06T09:59:05.184Z,52.70
2019-03-06T10:01:45.550Z,51.50
2019-03-06T10:04:26.112Z,51.70
2019-03-06T10:07:00.672Z,52.20
2019-03-06T10:09:48.182Z,50.30
2019-03-06T10:12:31.466Z,51.80
2019-03-06T10:15:05.838Z,49.60
2019-03-06T10:17:39.946Z,49.30
2019-03-06T10:20:25.021Z,50.80
2019-03-06T10:22:50.658Z,48.40
2019-03-06T10:25:34.670Z,48.50
2019-03-06T10:27:51.801Z,50.20
2019-03-06T10:30:21.598Z,49.40
2019-03-06T10:32:51.507Z,49.60
2019-03-06T10:35:21.277Z,48.00
2019-03-06T10:37:51.314Z,47.00
2019-03-06T10:40:21.111Z,47.40
2019-03-06T10:42:50.836Z,49.90
2019-03-06T10:45:20.682Z,47.80
2019-03-06T10:47:50.813Z,46.00
2019-03-06T10:50:27.459Z,45.00
2019-03-06T10:52:55.051Z,45.70
2019-03-06T10:55:24.826Z,45.30
2019-03-06T10:57:54.864Z,46.80
2019-03-06T11:00:31.226Z,47.00
2019-03-06T11:03:01.157Z,46.40
2019-03-06T11:05:32.492Z,45.80
2019-03-06T11:08:02.329Z,45.20
2019-03-06T11:10:34.510Z,46.10
2019-03-06T11:13:08.641Z,46.00
2019-03-06T11:15:39.565Z,44.80
2019-03-06T11:18:10.001Z,43.70
2019-03-06T11:20:40.825Z,43.70
2019-03-06T11:23:11.908Z,43.40
2019-03-06T11:25:41.902Z,44.50
2019-03-06T11:31:20.117Z,45.00
2019-03-06T11:33:49.959Z,44.70
2019-03-06T11:36:19.825Z,42.40
2019-03-06T11:38:49.573Z,43.30
2019-03-06T11:41:19.297Z,42.40
2019-03-06T11:43:49.050Z,43.10
2019-03-06T11:46:20.526Z,43.30
2019-03-06T11:48:50.270Z,44.30
2019-03-06T11:51:20.022Z,44.20
2019-03-06T11:53:49.758Z,43.80
2019-03-06T11:56:19.503Z,44.60
2019-03-06T11:58:49.330Z,43.00
2019-03-06T12:01:20.929Z,41.90
2019-03-06T12:03:52.507Z,41.60
2019-03-06T12:06:22.234Z,43.30
2019-03-06T12:08:52.012Z,43.50
2019-03-06T12:11:21.933Z,44.40
2019-03-06T12:13:52.051Z,44.10
2019-03-06T12:16:21.777Z,44.20
2019-03-06T12:18:51.809Z,42.60
2019-03-06T12:21:21.590Z,42.10
2019-03-06T12:23:51.337Z,42.80
2019-03-06T12:26:21.111Z,43.80
2019-03-06T12:28:50.854Z,44.00
2019-03-06T12:31:20.590Z,43.90
2019-03-06T12:33:50.329Z,44.00
2019-03-06T12:36:20.063Z,42.60
2019-03-06T12:38:49.829Z,42.90
2019-03-06T12:41:19.666Z,44.10
2019-03-06T12:43:49.402Z,44.10
2019-03-06T12:46:23.857Z,43.60
2019-03-06T12:48:56.041Z,41.30
2019-03-06T12:51:25.878Z,41.70
2019-03-06T12:53:55.646Z,43.30
2019-03-06T12:56:25.370Z,43.00
2019-03-06T12:58:55.093Z,43.00
2019-03-06T13:01:24.871Z,42.60
2019-03-06T13:03:54.606Z,43.80
2019-03-06T13:07:38.798Z,44.10
2019-03-06T13:08:57.115Z,42.10
2019-03-06T13:11:27.086Z,42.30
2019-03-06T13:13:57.838Z,43.30
2019-03-06T13:16:27.568Z,44.70
2019-03-06T13:18:57.349Z,44.80
2019-03-06T13:21:27.190Z,44.70
2019-03-06T13:23:57.074Z,44.90
2019-03-06T13:26:26.814Z,44.80
2019-03-06T13:28:57.670Z,44.40
2019-03-06T13:31:27.585Z,43.90
2019-03-06T13:34:05.232Z,44.30
2019-03-06T13:36:34.969Z,44.30
2019-03-06T13:39:06.799Z,44.00
2019-03-06T13:41:37.476Z,43.90
2019-03-06T13:44:07.343Z,43.20
2019-03-06T13:46:37.073Z,42.90
2019-03-06T13:49:06.961Z,41.80
2019-03-06T13:51:37.689Z,41.00
2019-03-06T13:54:08.361Z,40.50
2019-03-06T13:56:38.569Z,39.20
2019-03-06T13:59:08.675Z,38.90
2019-03-06T14:01:38.426Z,38.50
2019-03-06T14:04:08.206Z,37.90
2019-03-06T14:06:38.959Z,37.40
2019-03-06T14:09:08.952Z,37.50
2019-03-06T14:11:40.329Z,37.00
2019-03-06T14:14:10.114Z,36.50
2019-03-06T14:16:39.853Z,35.10
2019-03-06T14:19:09.622Z,34.60
2019-03-06T14:21:39.358Z,33.70
2019-03-06T14:24:09.151Z,32.70
2019-03-06T14:26:39.194Z,31.60
2019-03-06T14:29:08.986Z,31.70
2019-03-06T14:31:38.746Z,32.10
2019-03-06T14:34:08.480Z,33.20
2019-03-06T14:36:38.226Z,33.10
2019-03-06T14:39:22.169Z,32.70
2019-03-06T14:41:52.314Z,33.50
2019-03-06T14:44:22.095Z,34.40
2019-03-06T14:46:51.930Z,34.50
2019-03-06T14:49:21.682Z,34.00
2019-03-06T14:51:51.622Z,34.50
2019-03-06T14:54:21.399Z,34.50
2019-03-06T14:56:52.130Z,33.90
2019-03-06T14:59:23.015Z,33.20
2019-03-06T15:01:52.758Z,33.20
2019-03-06T15:04:22.495Z,33.10
2019-03-06T15:06:52.498Z,33.00
2019-03-06T15:09:24.595Z,31.70
2019-03-06T15:11:54.357Z,31.70
2019-03-06T15:14:24.077Z,33.10
2019-03-06T15:16:53.857Z,33.10
2019-03-06T15:19:24.781Z,33.80
2019-03-06T15:21:54.574Z,34.00
2019-03-06T15:24:24.312Z,34.80
2019-03-06T15:26:54.082Z,36.10
2019-03-06T15:29:23.810Z,36.70
2019-03-06T15:31:53.893Z,37.50
2019-03-06T15:34:24.326Z,38.60
2019-03-06T15:36:55.094Z,39.60
2019-03-06T15:39:29.566Z,40.90
2019-03-06T15:42:02.054Z,42.30
2019-03-06T15:44:30.985Z,43.90
2019-03-06T15:47:00.779Z,45.60
2019-03-06T15:49:30.501Z,46.50
2019-03-06T15:52:00.311Z,47.00
2019-03-06T15:54:30.845Z,47.50
2019-03-06T15:57:00.612Z,47.90
2019-03-06T15:59:30.341Z,48.30
2019-03-06T16:02:00.130Z,48.30
2019-03-06T16:04:29.865Z,48.50
2019-03-06T16:06:59.598Z,48.70
2019-03-06T16:09:29.339Z,49.00
2019-03-06T16:11:59.278Z,48.80
2019-03-06T16:14:29.045Z,49.10
2019-03-06T16:16:58.886Z,49.20
2019-03-06T16:19:28.617Z,49.40
2019-03-06T16:21:58.358Z,50.50
2019-03-06T16:24:28.323Z,50.00
2019-03-06T16:26:58.078Z,50.20
2019-03-06T16:29:27.862Z,50.60
2019-03-06T16:31:57.607Z,50.80
2019-03-06T16:34:27.337Z,51.90
2019-03-06T16:36:57.086Z,51.60
2019-03-06T16:39:26.810Z,51.90
2019-03-06T16:41:56.586Z,52.00
2019-03-06T16:44:26.317Z,52.40
2019-03-06T16:46:56.359Z,52.50
2019-03-06T16:49:26.085Z,52.90
2019-03-06T16:51:56.157Z,53.10
2019-03-06T16:54:25.886Z,53.30
2019-03-06T16:56:55.729Z,53.50
2019-03-06T16:59:25.457Z,53.90
2019-03-06T17:01:55.495Z,53.80
2019-03-06T17:04:25.438Z,54.00
2019-03-06T17:06:55.110Z,54.20
2019-03-06T17:09:25.083Z,54.60
2019-03-06T17:11:54.818Z,54.90
2019-03-06T17:14:24.989Z,55.40
2019-03-06T17:16:54.717Z,55.60
2019-03-06T17:19:24.750Z,55.70
2019-03-06T17:21:54.486Z,56.10
2019-03-06T17:24:24.436Z,56.40
2019-03-06T17:26:54.183Z,56.50
2019-03-06T17:29:23.894Z,57.10
2019-03-06T17:31:54.369Z,57.40
2019-03-06T17:34:24.277Z,57.50
2019-03-06T17:36:54.166Z,57.70
2019-03-06T17:39:23.899Z,57.90
2019-03-06T17:41:53.625Z,58.20
2019-03-06T17:44:23.367Z,58.30
2019-03-06T17:46:53.403Z,58.40
2019-03-06T17:49:23.161Z,58.90
2019-03-06T17:51:52.897Z,58.30
2019-03-06T17:54:22.618Z,58.30
2019-03-06T17:56:52.510Z,58.30
2019-03-06T17:59:22.336Z,58.20
2019-03-06T18:01:52.103Z,58.30
2019-03-06T18:04:21.829Z,58.20
2019-03-06T18:06:51.567Z,58.30
2019-03-06T18:09:21.298Z,58.20
2019-03-06T18:11:51.021Z,58.40
2019-03-06T18:14:21.135Z,58.30
2019-03-06T18:16:51.860Z,58.30
2019-03-06T18:19:22.034Z,58.10
2019-03-06T18:21:51.753Z,58.30
2019-03-06T18:24:21.482Z,58.30
2019-03-06T18:26:51.249Z,58.60
2019-03-06T18:29:22.544Z,58.50
2019-03-06T18:31:52.424Z,58.20
2019-03-06T18:34:22.154Z,58.10
2019-03-06T18:36:51.926Z,58.00
2019-03-06T18:39:21.757Z,58.20
2019-03-06T18:41:51.490Z,58.20
2019-03-06T18:44:22.323Z,58.30
2019-03-06T18:46:52.051Z,58.30
2019-03-06T18:49:21.938Z,58.50
2019-03-06T18:51:51.677Z,58.50
2019-03-06T18:54:21.410Z,58.70
2019-03-06T18:56:52.707Z,58.80
2019-03-06T18:59:22.438Z,58.80
2019-03-06T19:01:54.104Z,58.80
2019-03-06T19:04:23.958Z,58.80
2019-03-06T19:06:53.697Z,58.70
2019-03-06T19:09:24.887Z,58.60
2019-03-06T19:11:54.662Z,58.50
2019-03-06T19:14:24.393Z,58.60
2019-03-06T19:16:54.122Z,58.50
2019-03-06T19:19:24.001Z,58.60
2019-03-06T19:21:53.743Z,58.70
2019-03-06T19:24:23.774Z,58.30
2019-03-06T19:26:55.138Z,58.20
2019-03-06T19:29:24.868Z,58.10
2019-03-06T19:31:54.607Z,58.10
2019-03-06T19:34:24.334Z,58.10
2019-03-06T19:36:54.070Z,57.90
2019-03-06T19:39:23.956Z,58.10
2019-03-06T19:41:56.383Z,58.00
2019-03-06T19:44:26.149Z,57.90
2019-03-06T19:46:58.262Z,58.10
2019-03-06T19:49:28.297Z,58.00
2019-03-06T19:51:58.773Z,57.90
2019-03-06T19:54:28.498Z,57.90
2019-03-06T19:56:58.725Z,57.90
2019-03-06T19:59:28.449Z,57.90
2019-03-06T20:02:03.034Z,58.00
2019-03-06T20:04:32.854Z,58.10
2019-03-06T20:07:03.622Z,58.00
2019-03-06T20:09:36.537Z,57.90
2019-03-06T20:12:08.529Z,59.00
2019-03-06T20:14:39.112Z,58.00
2019-03-06T20:17:09.180Z,58.10
2019-03-06T20:19:38.917Z,58.30
2019-03-06T20:22:10.721Z,58.40
2019-03-06T20:24:40.434Z,58.50
2019-03-06T20:27:10.350Z,58.40
2019-03-06T20:29:40.092Z,58.40
2019-03-06T20:32:09.870Z,58.10
2019-03-06T20:34:39.607Z,58.10
2019-03-06T20:37:09.337Z,58.10
2019-03-06T20:39:39.088Z,58.20
2019-03-06T20:42:08.809Z,58.20
2019-03-06T20:44:38.745Z,58.40
2019-03-06T20:47:08.762Z,58.60
2019-03-06T20:49:38.550Z,58.50
2019-03-06T20:52:08.269Z,58.60
2019-03-06T20:54:38.038Z,58.40
2019-03-06T20:57:08.774Z,58.40
2019-03-06T20:59:41.877Z,58.30
2019-03-06T21:02:12.618Z,58.30
2019-03-06T21:04:42.375Z,58.20
2019-03-06T21:07:12.095Z,58.10
2019-03-06T21:09:41.858Z,57.90
2019-03-06T21:12:11.600Z,57.80
2019-03-06T21:14:41.693Z,57.70
2019-03-06T21:17:11.436Z,57.70
2019-03-06T21:19:41.162Z,58.00
2019-03-06T21:22:10.938Z,57.90
2019-03-06T21:24:40.662Z,58.00
2019-03-06T21:27:11.429Z,58.10
2019-03-06T21:29:41.162Z,58.00
2019-03-06T21:32:10.938Z,58.10
2019-03-06T21:34:40.671Z,58.00
2019-03-06T21:37:10.412Z,58.00
2019-03-06T21:39:40.152Z,57.90
2019-03-06T21:42:09.909Z,57.90
2019-03-06T21:44:39.647Z,57.90
2019-03-06T21:47:09.369Z,58.10
2019-03-06T21:49:39.118Z,58.10
2019-03-06T21:52:08.846Z,58.20
2019-03-06T21:54:39.752Z,58.30
2019-03-06T21:57:09.476Z,58.30
2019-03-06T21:59:39.241Z,58.40
2019-03-06T22:02:08.984Z,58.60
2019-03-06T22:04:40.366Z,58.70
2019-03-06T22:07:10.103Z,58.80
2019-03-06T22:09:39.882Z,59.10
2019-03-06T22:12:09.625Z,59.40
2019-03-06T22:14:40.390Z,59.60
2019-03-06T22:17:10.135Z,59.90
2019-03-06T22:19:39.923Z,60.20
2019-03-06T22:22:09.646Z,60.80
2019-03-06T22:24:39.375Z,61.10
2019-03-06T22:27:09.105Z,61.50
2019-03-06T22:29:38.873Z,61.30
2019-03-06T22:32:08.821Z,61.70
2019-03-06T22:34:38.559Z,61.90
2019-03-06T22:37:08.321Z,61.80
2019-03-06T22:39:38.062Z,61.70
2019-03-06T22:42:07.833Z,61.50
2019-03-06T22:44:37.570Z,61.20
2019-03-06T22:47:07.606Z,61.20
2019-03-06T22:49:37.337Z,60.80
2019-03-06T22:52:07.066Z,60.70
2019-03-06T22:54:36.842Z,60.80
2019-03-06T22:57:06.566Z,61.00
2019-03-06T22:59:36.293Z,60.90
2019-03-06T23:02:06.352Z,60.90
2019-03-06T23:04:36.062Z,60.80
2019-03-06T23:07:06.266Z,60.90
2019-03-06T23:09:35.986Z,60.70
2019-03-06T23:12:05.732Z,60.50
2019-03-06T23:14:35.761Z,60.70
2019-03-06T23:17:05.490Z,60.60
2019-03-06T23:19:35.251Z,60.40
2019-03-06T23:22:04.979Z,60.20
2019-03-06T23:24:34.721Z,60.20
2019-03-06T23:27:04.550Z,60.10
2019-03-06T23:29:34.318Z,60.30
2019-03-06T23:32:04.052Z,60.40
2019-03-06T23:34:33.826Z,60.20
2019-03-06T23:37:03.547Z,60.00
2019-03-06T23:39:33.280Z,60.00
2019-03-06T23:42:03.014Z,59.90
2019-03-06T23:44:32.741Z,60.70
2019-03-06T23:47:02.523Z,60.80
2019-03-06T23:49:32.247Z,61.00
2019-03-06T23:52:04.735Z,60.70
2019-03-06T23:54:34.641Z,60.80
2019-03-06T23:57:04.406Z,60.90
2019-03-06T23:59:34.452Z,60.80
